sensor_id;sensor_type;location;lat;lon;timestamp;P1;durP1;ratioP1;P2;durP2;ratioP2
11604;SDS011;5858;43.076;25.626;2022-07-22T00:00:17;7.25;;;3.75;;
11604;SDS011;5858;43.076;25.626;2022-07-22T00:02:44;4.75;;;4.18;;
11604;SDS011;5858;43.076;25.626;2022-07-22T00:05:11;5.85;;;3.90;;
11604;SDS011;5858;43.076;25.626;2022-07-22T00:07:40;5.38;;;3.70;;
11604;SDS011;5858;43.076;25.626;2022-07-22T00:10:07;4.90;;;3.58;;
11604;SDS011;5858;43.076;25.626;2022-07-22T00:12:37;6.40;;;3.90;;
11604;SDS011;5858;43.076;25.626;2022-07-22T00:15:05;4.70;;;3.90;;
11604;SDS011;5858;43.076;25.626;2022-07-22T00:17:34;5.40;;;4.22;;
11604;SDS011;5858;43.076;25.626;2022-07-22T00:20:02;5.03;;;3.72;;
11604;SDS011;5858;43.076;25.626;2022-07-22T00:22:30;4.43;;;3.53;;
11604;SDS011;5858;43.076;25.626;2022-07-22T00:24:58;7.13;;;3.60;;
11604;SDS011;5858;43.076;25.626;2022-07-22T00:27:25;6.25;;;3.80;;
11604;SDS011;5858;43.076;25.626;2022-07-22T00:29:53;4.38;;;3.97;;
11604;SDS011;5858;43.076;25.626;2022-07-22T00:32:20;7.30;;;3.75;;
11604;SDS011;5858;43.076;25.626;2022-07-22T00:34:47;4.53;;;3.95;;
11604;SDS011;5858;43.076;25.626;2022-07-22T00:37:14;7.45;;;3.97;;
11604;SDS011;5858;43.076;25.626;2022-07-22T00:39:41;5.55;;;4.40;;
11604;SDS011;5858;43.076;25.626;2022-07-22T00:42:08;7.68;;;4.57;;
11604;SDS011;5858;43.076;25.626;2022-07-22T00:44:35;8.75;;;3.80;;
11604;SDS011;5858;43.076;25.626;2022-07-22T00:47:04;6.80;;;4.13;;
11604;SDS011;5858;43.076;25.626;2022-07-22T00:49:31;10.85;;;4.72;;
11604;SDS011;5858;43.076;25.626;2022-07-22T00:51:58;7.70;;;4.22;;
11604;SDS011;5858;43.076;25.626;2022-07-22T00:54:25;8.50;;;3.83;;
11604;SDS011;5858;43.076;25.626;2022-07-22T00:56:52;5.05;;;4.00;;
11604;SDS011;5858;43.076;25.626;2022-07-22T00:59:19;4.97;;;3.60;;
11604;SDS011;5858;43.076;25.626;2022-07-22T01:01:47;4.47;;;3.85;;
11604;SDS011;5858;43.076;25.626;2022-07-22T01:04:15;6.22;;;4.18;;
11604;SDS011;5858;43.076;25.626;2022-07-22T01:06:43;5.60;;;4.03;;
11604;SDS011;5858;43.076;25.626;2022-07-22T01:09:11;5.38;;;3.90;;
11604;SDS011;5858;43.076;25.626;2022-07-22T01:11:38;5.13;;;3.85;;
11604;SDS011;5858;43.076;25.626;2022-07-22T01:14:06;4.43;;;3.80;;
11604;SDS011;5858;43.076;25.626;2022-07-22T01:16:33;6.57;;;4.10;;
11604;SDS011;5858;43.076;25.626;2022-07-22T01:19:02;7.65;;;4.53;;
11604;SDS011;5858;43.076;25.626;2022-07-22T01:21:31;5.55;;;3.90;;
11604;SDS011;5858;43.076;25.626;2022-07-22T01:23:58;4.78;;;4.35;;
11604;SDS011;5858;43.076;25.626;2022-07-22T01:26:26;8.73;;;4.30;;
11604;SDS011;5858;43.076;25.626;2022-07-22T01:28:53;5.22;;;3.90;;
11604;SDS011;5858;43.076;25.626;2022-07-22T01:31:21;4.40;;;3.83;;
11604;SDS011;5858;43.076;25.626;2022-07-22T01:33:48;6.45;;;4.13;;
11604;SDS011;5858;43.076;25.626;2022-07-22T01:36:15;7.88;;;4.68;;
11604;SDS011;5858;43.076;25.626;2022-07-22T01:38:43;9.52;;;4.53;;
11604;SDS011;5858;43.076;25.626;2022-07-22T01:41:10;4.57;;;3.80;;
11604;SDS011;5858;43.076;25.626;2022-07-22T01:43:37;7.80;;;3.88;;
11604;SDS011;5858;43.076;25.626;2022-07-22T01:46:05;4.60;;;3.40;;
11604;SDS011;5858;43.076;25.626;2022-07-22T01:48:32;5.80;;;3.92;;
11604;SDS011;5858;43.076;25.626;2022-07-22T01:50:59;5.28;;;3.90;;
11604;SDS011;5858;43.076;25.626;2022-07-22T01:53:26;4.70;;;4.30;;
11604;SDS011;5858;43.076;25.626;2022-07-22T01:55:55;4.25;;;3.80;;
11604;SDS011;5858;43.076;25.626;2022-07-22T01:58:22;4.80;;;4.10;;
11604;SDS011;5858;43.076;25.626;2022-07-22T02:00:50;5.13;;;3.80;;
11604;SDS011;5858;43.076;25.626;2022-07-22T02:03:18;5.13;;;3.72;;
11604;SDS011;5858;43.076;25.626;2022-07-22T02:05:45;8.23;;;4.22;;
11604;SDS011;5858;43.076;25.626;2022-07-22T02:08:12;6.78;;;4.57;;
11604;SDS011;5858;43.076;25.626;2022-07-22T02:10:39;7.55;;;4.78;;
11604;SDS011;5858;43.076;25.626;2022-07-22T02:13:08;5.97;;;4.07;;
11604;SDS011;5858;43.076;25.626;2022-07-22T02:15:35;8.23;;;4.78;;
11604;SDS011;5858;43.076;25.626;2022-07-22T02:18:09;6.53;;;4.32;;
11604;SDS011;5858;43.076;25.626;2022-07-22T02:20:37;7.97;;;4.28;;
11604;SDS011;5858;43.076;25.626;2022-07-22T02:23:04;4.82;;;4.03;;
11604;SDS011;5858;43.076;25.626;2022-07-22T02:25:32;8.33;;;3.97;;
11604;SDS011;5858;43.076;25.626;2022-07-22T02:27:59;4.82;;;3.70;;
11604;SDS011;5858;43.076;25.626;2022-07-22T02:30:28;8.38;;;4.47;;
11604;SDS011;5858;43.076;25.626;2022-07-22T02:32:55;7.65;;;4.18;;
11604;SDS011;5858;43.076;25.626;2022-07-22T02:35:23;6.78;;;4.45;;
11604;SDS011;5858;43.076;25.626;2022-07-22T02:37:50;8.05;;;4.20;;
11604;SDS011;5858;43.076;25.626;2022-07-22T02:40:17;6.45;;;4.18;;
11604;SDS011;5858;43.076;25.626;2022-07-22T02:42:44;8.15;;;4.50;;
11604;SDS011;5858;43.076;25.626;2022-07-22T02:45:11;7.80;;;4.70;;
11604;SDS011;5858;43.076;25.626;2022-07-22T02:47:46;6.57;;;4.15;;
11604;SDS011;5858;43.076;25.626;2022-07-22T02:50:16;8.98;;;4.88;;
11604;SDS011;5858;43.076;25.626;2022-07-22T02:52:43;9.70;;;4.63;;
11604;SDS011;5858;43.076;25.626;2022-07-22T02:55:10;8.02;;;4.32;;
11604;SDS011;5858;43.076;25.626;2022-07-22T02:57:37;7.65;;;4.45;;
11604;SDS011;5858;43.076;25.626;2022-07-22T03:00:05;7.47;;;4.43;;
11604;SDS011;5858;43.076;25.626;2022-07-22T03:02:34;6.07;;;4.43;;
11604;SDS011;5858;43.076;25.626;2022-07-22T03:05:03;7.60;;;4.60;;
11604;SDS011;5858;43.076;25.626;2022-07-22T03:07:30;7.30;;;4.95;;
11604;SDS011;5858;43.076;25.626;2022-07-22T03:09:58;7.32;;;4.47;;
11604;SDS011;5858;43.076;25.626;2022-07-22T03:12:25;6.85;;;4.18;;
11604;SDS011;5858;43.076;25.626;2022-07-22T03:14:52;8.93;;;4.88;;
11604;SDS011;5858;43.076;25.626;2022-07-22T03:17:20;7.80;;;5.00;;
11604;SDS011;5858;43.076;25.626;2022-07-22T03:19:48;6.47;;;4.82;;
11604;SDS011;5858;43.076;25.626;2022-07-22T03:22:17;10.07;;;4.97;;
11604;SDS011;5858;43.076;25.626;2022-07-22T03:24:44;7.95;;;5.63;;
11604;SDS011;5858;43.076;25.626;2022-07-22T03:27:11;9.77;;;5.32;;
11604;SDS011;5858;43.076;25.626;2022-07-22T03:29:39;7.82;;;5.22;;
11604;SDS011;5858;43.076;25.626;2022-07-22T03:32:06;6.68;;;5.15;;
11604;SDS011;5858;43.076;25.626;2022-07-22T03:34:33;8.07;;;5.50;;
11604;SDS011;5858;43.076;25.626;2022-07-22T03:37:00;8.23;;;6.20;;
11604;SDS011;5858;43.076;25.626;2022-07-22T03:39:29;6.57;;;5.32;;
11604;SDS011;5858;43.076;25.626;2022-07-22T03:41:56;10.35;;;5.40;;
11604;SDS011;5858;43.076;25.626;2022-07-22T03:44:23;19.02;;;9.68;;
11604;SDS011;5858;43.076;25.626;2022-07-22T03:46:50;19.00;;;15.65;;
11604;SDS011;5858;43.076;25.626;2022-07-22T03:49:18;22.77;;;17.27;;
11604;SDS011;5858;43.076;25.626;2022-07-22T03:51:46;26.05;;;17.83;;
11604;SDS011;5858;43.076;25.626;2022-07-22T03:54:13;27.85;;;17.05;;
11604;SDS011;5858;43.076;25.626;2022-07-22T03:56:42;23.08;;;17.73;;
11604;SDS011;5858;43.076;25.626;2022-07-22T03:59:09;18.45;;;13.82;;
11604;SDS011;5858;43.076;25.626;2022-07-22T04:01:36;20.23;;;13.45;;
11604;SDS011;5858;43.076;25.626;2022-07-22T04:04:03;22.55;;;12.48;;
11604;SDS011;5858;43.076;25.626;2022-07-22T04:06:30;16.08;;;11.80;;
11604;SDS011;5858;43.076;25.626;2022-07-22T04:08:58;19.05;;;12.30;;
11604;SDS011;5858;43.076;25.626;2022-07-22T04:11:25;17.02;;;12.32;;
11604;SDS011;5858;43.076;25.626;2022-07-22T04:13:54;13.43;;;10.60;;
11604;SDS011;5858;43.076;25.626;2022-07-22T04:16:21;23.05;;;13.52;;
11604;SDS011;5858;43.076;25.626;2022-07-22T04:18:48;18.08;;;12.27;;
11604;SDS011;5858;43.076;25.626;2022-07-22T04:21:15;16.80;;;9.43;;
11604;SDS011;5858;43.076;25.626;2022-07-22T04:23:45;15.15;;;10.68;;
11604;SDS011;5858;43.076;25.626;2022-07-22T04:26:12;13.73;;;9.02;;
11604;SDS011;5858;43.076;25.626;2022-07-22T04:28:39;9.98;;;7.68;;
11604;SDS011;5858;43.076;25.626;2022-07-22T04:31:07;17.92;;;11.45;;
11604;SDS011;5858;43.076;25.626;2022-07-22T04:33:34;13.60;;;6.85;;
11604;SDS011;5858;43.076;25.626;2022-07-22T04:36:01;14.00;;;7.68;;
11604;SDS011;5858;43.076;25.626;2022-07-22T04:38:28;16.23;;;9.98;;
11604;SDS011;5858;43.076;25.626;2022-07-22T04:40:55;11.48;;;8.35;;
11604;SDS011;5858;43.076;25.626;2022-07-22T04:43:23;13.52;;;7.60;;
11604;SDS011;5858;43.076;25.626;2022-07-22T04:45:50;8.90;;;7.10;;
11604;SDS011;5858;43.076;25.626;2022-07-22T04:48:18;7.68;;;6.38;;
11604;SDS011;5858;43.076;25.626;2022-07-22T04:50:47;8.13;;;6.35;;
11604;SDS011;5858;43.076;25.626;2022-07-22T04:53:14;9.32;;;5.65;;
11604;SDS011;5858;43.076;25.626;2022-07-22T04:55:41;7.72;;;5.78;;
11604;SDS011;5858;43.076;25.626;2022-07-22T04:58:09;9.23;;;5.45;;
11604;SDS011;5858;43.076;25.626;2022-07-22T05:00:36;8.48;;;5.30;;
11604;SDS011;5858;43.076;25.626;2022-07-22T05:03:06;5.97;;;4.97;;
11604;SDS011;5858;43.076;25.626;2022-07-22T05:05:35;8.15;;;5.07;;
11604;SDS011;5858;43.076;25.626;2022-07-22T05:08:02;8.13;;;4.72;;
11604;SDS011;5858;43.076;25.626;2022-07-22T05:10:29;9.70;;;5.43;;
11604;SDS011;5858;43.076;25.626;2022-07-22T05:12:57;8.68;;;5.43;;
11604;SDS011;5858;43.076;25.626;2022-07-22T05:15:25;11.75;;;7.53;;
11604;SDS011;5858;43.076;25.626;2022-07-22T05:17:52;11.80;;;8.43;;
11604;SDS011;5858;43.076;25.626;2022-07-22T05:20:19;11.70;;;10.20;;
11604;SDS011;5858;43.076;25.626;2022-07-22T05:22:48;14.75;;;11.93;;
11604;SDS011;5858;43.076;25.626;2022-07-22T05:25:15;18.35;;;12.55;;
11604;SDS011;5858;43.076;25.626;2022-07-22T05:27:48;21.52;;;15.23;;
11604;SDS011;5858;43.076;25.626;2022-07-22T05:30:17;18.88;;;13.25;;
11604;SDS011;5858;43.076;25.626;2022-07-22T05:32:45;16.15;;;11.65;;
11604;SDS011;5858;43.076;25.626;2022-07-22T05:35:12;15.77;;;14.00;;
11604;SDS011;5858;43.076;25.626;2022-07-22T05:37:39;16.65;;;13.38;;
11604;SDS011;5858;43.076;25.626;2022-07-22T05:40:11;14.05;;;12.55;;
11604;SDS011;5858;43.076;25.626;2022-07-22T05:42:42;17.77;;;11.82;;
11604;SDS011;5858;43.076;25.626;2022-07-22T05:45:09;14.02;;;9.95;;
11604;SDS011;5858;43.076;25.626;2022-07-22T05:47:36;13.20;;;9.10;;
11604;SDS011;5858;43.076;25.626;2022-07-22T05:50:04;11.02;;;8.48;;
11604;SDS011;5858;43.076;25.626;2022-07-22T05:52:32;13.80;;;8.35;;
11604;SDS011;5858;43.076;25.626;2022-07-22T05:55:01;12.93;;;8.15;;
11604;SDS011;5858;43.076;25.626;2022-07-22T05:57:30;12.82;;;10.75;;
11604;SDS011;5858;43.076;25.626;2022-07-22T05:59:57;15.93;;;14.30;;
11604;SDS011;5858;43.076;25.626;2022-07-22T06:02:25;19.25;;;15.27;;
11604;SDS011;5858;43.076;25.626;2022-07-22T06:04:53;17.13;;;15.30;;
11604;SDS011;5858;43.076;25.626;2022-07-22T06:07:21;23.33;;;20.98;;
11604;SDS011;5858;43.076;25.626;2022-07-22T06:09:49;22.58;;;20.33;;
11604;SDS011;5858;43.076;25.626;2022-07-22T06:12:35;20.55;;;18.38;;
11604;SDS011;5858;43.076;25.626;2022-07-22T06:15:02;21.58;;;17.73;;
11604;SDS011;5858;43.076;25.626;2022-07-22T06:17:31;18.90;;;16.00;;
11604;SDS011;5858;43.076;25.626;2022-07-22T06:20:00;12.07;;;10.73;;
11604;SDS011;5858;43.076;25.626;2022-07-22T06:22:27;10.57;;;9.52;;
11604;SDS011;5858;43.076;25.626;2022-07-22T06:24:56;10.13;;;9.13;;
11604;SDS011;5858;43.076;25.626;2022-07-22T06:27:23;11.10;;;8.80;;
11604;SDS011;5858;43.076;25.626;2022-07-22T06:29:52;14.77;;;9.63;;
11604;SDS011;5858;43.076;25.626;2022-07-22T06:32:21;8.75;;;5.85;;
11604;SDS011;5858;43.076;25.626;2022-07-22T06:34:49;7.93;;;6.53;;
11604;SDS011;5858;43.076;25.626;2022-07-22T06:37:17;8.20;;;5.65;;
11604;SDS011;5858;43.076;25.626;2022-07-22T06:39:46;8.80;;;5.90;;
11604;SDS011;5858;43.076;25.626;2022-07-22T06:42:14;8.07;;;5.25;;
11604;SDS011;5858;43.076;25.626;2022-07-22T06:44:43;8.95;;;5.40;;
11604;SDS011;5858;43.076;25.626;2022-07-22T06:47:12;10.70;;;5.95;;
11604;SDS011;5858;43.076;25.626;2022-07-22T06:49:39;8.32;;;5.13;;
11604;SDS011;5858;43.076;25.626;2022-07-22T06:52:07;8.20;;;5.72;;
11604;SDS011;5858;43.076;25.626;2022-07-22T06:54:34;7.35;;;6.68;;
11604;SDS011;5858;43.076;25.626;2022-07-22T06:57:02;8.70;;;7.65;;
11604;SDS011;5858;43.076;25.626;2022-07-22T06:59:29;9.48;;;8.48;;
11604;SDS011;5858;43.076;25.626;2022-07-22T07:02:00;11.07;;;9.25;;
11604;SDS011;5858;43.076;25.626;2022-07-22T07:04:30;10.60;;;8.65;;
11604;SDS011;5858;43.076;25.626;2022-07-22T07:06:57;11.95;;;10.35;;
11604;SDS011;5858;43.076;25.626;2022-07-22T07:09:25;7.70;;;6.90;;
11604;SDS011;5858;43.076;25.626;2022-07-22T07:11:52;10.38;;;6.45;;
11604;SDS011;5858;43.076;25.626;2022-07-22T07:14:19;9.40;;;6.18;;
11604;SDS011;5858;43.076;25.626;2022-07-22T07:16:47;8.90;;;5.47;;
11604;SDS011;5858;43.076;25.626;2022-07-22T07:19:14;8.45;;;5.80;;
11604;SDS011;5858;43.076;25.626;2022-07-22T07:21:43;5.72;;;4.90;;
11604;SDS011;5858;43.076;25.626;2022-07-22T07:24:12;7.05;;;4.65;;
11604;SDS011;5858;43.076;25.626;2022-07-22T07:26:41;7.25;;;5.65;;
11604;SDS011;5858;43.076;25.626;2022-07-22T07:29:11;8.32;;;5.40;;
11604;SDS011;5858;43.076;25.626;2022-07-22T07:31:38;7.78;;;4.82;;
11604;SDS011;5858;43.076;25.626;2022-07-22T07:34:06;6.70;;;4.35;;
11604;SDS011;5858;43.076;25.626;2022-07-22T07:36:33;5.60;;;5.05;;
11604;SDS011;5858;43.076;25.626;2022-07-22T07:39:02;7.13;;;5.20;;
11604;SDS011;5858;43.076;25.626;2022-07-22T07:41:29;10.25;;;4.63;;
11604;SDS011;5858;43.076;25.626;2022-07-22T07:43:59;7.10;;;4.68;;
11604;SDS011;5858;43.076;25.626;2022-07-22T07:46:26;6.07;;;4.63;;
11604;SDS011;5858;43.076;25.626;2022-07-22T07:48:54;7.85;;;4.68;;
11604;SDS011;5858;43.076;25.626;2022-07-22T07:51:21;5.63;;;5.03;;
11604;SDS011;5858;43.076;25.626;2022-07-22T07:53:52;6.18;;;4.45;;
11604;SDS011;5858;43.076;25.626;2022-07-22T07:56:21;6.40;;;4.53;;
11604;SDS011;5858;43.076;25.626;2022-07-22T07:58:49;10.60;;;4.25;;
11604;SDS011;5858;43.076;25.626;2022-07-22T08:01:17;9.65;;;5.32;;
11604;SDS011;5858;43.076;25.626;2022-07-22T08:03:45;6.95;;;4.82;;
11604;SDS011;5858;43.076;25.626;2022-07-22T08:06:12;9.48;;;4.90;;
11604;SDS011;5858;43.076;25.626;2022-07-22T08:08:40;6.00;;;4.35;;
11604;SDS011;5858;43.076;25.626;2022-07-22T08:11:14;6.60;;;4.93;;
11604;SDS011;5858;43.076;25.626;2022-07-22T08:13:46;5.78;;;4.70;;
11604;SDS011;5858;43.076;25.626;2022-07-22T08:16:16;6.20;;;3.83;;
11604;SDS011;5858;43.076;25.626;2022-07-22T08:18:43;5.63;;;3.60;;
11604;SDS011;5858;43.076;25.626;2022-07-22T08:21:10;9.90;;;4.32;;
11604;SDS011;5858;43.076;25.626;2022-07-22T08:23:37;4.40;;;3.50;;
11604;SDS011;5858;43.076;25.626;2022-07-22T08:26:07;5.80;;;4.05;;
11604;SDS011;5858;43.076;25.626;2022-07-22T08:28:36;5.57;;;4.55;;
11604;SDS011;5858;43.076;25.626;2022-07-22T08:31:05;6.63;;;4.00;;
11604;SDS011;5858;43.076;25.626;2022-07-22T08:33:32;13.13;;;4.65;;
11604;SDS011;5858;43.076;25.626;2022-07-22T08:36:00;5.72;;;3.85;;
11604;SDS011;5858;43.076;25.626;2022-07-22T08:38:27;5.95;;;4.18;;
11604;SDS011;5858;43.076;25.626;2022-07-22T08:40:55;4.95;;;4.25;;
11604;SDS011;5858;43.076;25.626;2022-07-22T08:43:25;5.72;;;4.03;;
11604;SDS011;5858;43.076;25.626;2022-07-22T08:45:52;6.07;;;4.07;;
11604;SDS011;5858;43.076;25.626;2022-07-22T08:48:21;7.63;;;4.00;;
11604;SDS011;5858;43.076;25.626;2022-07-22T08:50:50;6.40;;;3.92;;
11604;SDS011;5858;43.076;25.626;2022-07-22T08:53:17;10.57;;;4.25;;
11604;SDS011;5858;43.076;25.626;2022-07-22T08:55:46;4.53;;;3.67;;
11604;SDS011;5858;43.076;25.626;2022-07-22T08:58:15;9.07;;;4.05;;
11604;SDS011;5858;43.076;25.626;2022-07-22T09:00:43;5.07;;;3.70;;
11604;SDS011;5858;43.076;25.626;2022-07-22T09:03:17;4.13;;;3.50;;
11604;SDS011;5858;43.076;25.626;2022-07-22T09:05:49;4.68;;;3.40;;
11604;SDS011;5858;43.076;25.626;2022-07-22T09:08:17;5.43;;;3.70;;
11604;SDS011;5858;43.076;25.626;2022-07-22T09:10:45;7.05;;;3.72;;
11604;SDS011;5858;43.076;25.626;2022-07-22T09:13:13;4.90;;;3.53;;
11604;SDS011;5858;43.076;25.626;2022-07-22T09:15:45;4.43;;;3.30;;
11604;SDS011;5858;43.076;25.626;2022-07-22T09:18:14;5.72;;;3.75;;
11604;SDS011;5858;43.076;25.626;2022-07-22T09:20:41;4.82;;;3.28;;
11604;SDS011;5858;43.076;25.626;2022-07-22T09:23:14;5.70;;;3.63;;
11604;SDS011;5858;43.076;25.626;2022-07-22T09:25:44;4.50;;;3.80;;
11604;SDS011;5858;43.076;25.626;2022-07-22T09:28:15;5.55;;;3.45;;
11604;SDS011;5858;43.076;25.626;2022-07-22T09:30:47;3.65;;;3.25;;
11604;SDS011;5858;43.076;25.626;2022-07-22T09:33:19;7.07;;;3.80;;
11604;SDS011;5858;43.076;25.626;2022-07-22T09:35:51;5.45;;;3.38;;
11604;SDS011;5858;43.076;25.626;2022-07-22T09:38:32;3.67;;;3.38;;
11604;SDS011;5858;43.076;25.626;2022-07-22T09:41:00;6.35;;;3.10;;
11604;SDS011;5858;43.076;25.626;2022-07-22T09:43:27;5.07;;;3.20;;
11604;SDS011;5858;43.076;25.626;2022-07-22T09:45:59;5.05;;;3.40;;
11604;SDS011;5858;43.076;25.626;2022-07-22T09:48:28;7.00;;;3.67;;
11604;SDS011;5858;43.076;25.626;2022-07-22T09:50:56;4.03;;;3.10;;
11604;SDS011;5858;43.076;25.626;2022-07-22T09:53:25;4.35;;;2.90;;
11604;SDS011;5858;43.076;25.626;2022-07-22T09:55:54;5.65;;;3.35;;
11604;SDS011;5858;43.076;25.626;2022-07-22T09:58:26;5.82;;;3.47;;
11604;SDS011;5858;43.076;25.626;2022-07-22T10:00:54;6.78;;;3.85;;
11604;SDS011;5858;43.076;25.626;2022-07-22T10:03:27;5.55;;;2.88;;
11604;SDS011;5858;43.076;25.626;2022-07-22T10:05:56;5.85;;;2.70;;
11604;SDS011;5858;43.076;25.626;2022-07-22T10:08:24;5.72;;;2.95;;
11604;SDS011;5858;43.076;25.626;2022-07-22T10:10:54;4.03;;;3.10;;
11604;SDS011;5858;43.076;25.626;2022-07-22T10:13:25;5.88;;;2.83;;
11604;SDS011;5858;43.076;25.626;2022-07-22T10:15:54;4.22;;;3.55;;
11604;SDS011;5858;43.076;25.626;2022-07-22T10:18:22;2.85;;;2.63;;
11604;SDS011;5858;43.076;25.626;2022-07-22T10:21:00;3.38;;;2.92;;
11604;SDS011;5858;43.076;25.626;2022-07-22T10:23:31;4.57;;;2.85;;
11604;SDS011;5858;43.076;25.626;2022-07-22T10:25:59;5.97;;;3.05;;
11604;SDS011;5858;43.076;25.626;2022-07-22T10:28:29;5.95;;;2.83;;
11604;SDS011;5858;43.076;25.626;2022-07-22T10:31:16;4.30;;;2.65;;
11604;SDS011;5858;43.076;25.626;2022-07-22T10:33:45;2.65;;;2.42;;
11604;SDS011;5858;43.076;25.626;2022-07-22T10:36:15;5.15;;;2.97;;
11604;SDS011;5858;43.076;25.626;2022-07-22T10:39:06;3.33;;;2.80;;
11604;SDS011;5858;43.076;25.626;2022-07-22T10:41:35;3.55;;;2.90;;
11604;SDS011;5858;43.076;25.626;2022-07-22T10:44:08;3.75;;;2.90;;
11604;SDS011;5858;43.076;25.626;2022-07-22T10:46:48;4.90;;;2.97;;
11604;SDS011;5858;43.076;25.626;2022-07-22T10:49:17;4.32;;;3.13;;
11604;SDS011;5858;43.076;25.626;2022-07-22T11:01:14;7.07;;;2.95;;
11604;SDS011;5858;43.076;25.626;2022-07-22T11:03:43;4.00;;;2.50;;
11604;SDS011;5858;43.076;25.626;2022-07-22T11:06:24;3.17;;;2.90;;
11604;SDS011;5858;43.076;25.626;2022-07-22T11:08:54;3.35;;;2.75;;
11604;SDS011;5858;43.076;25.626;2022-07-22T11:11:36;3.45;;;2.70;;
11604;SDS011;5858;43.076;25.626;2022-07-22T11:14:17;5.65;;;3.05;;
11604;SDS011;5858;43.076;25.626;2022-07-22T11:16:51;4.22;;;2.60;;
11604;SDS011;5858;43.076;25.626;2022-07-22T11:19:20;4.55;;;2.67;;
11604;SDS011;5858;43.076;25.626;2022-07-22T11:21:49;3.35;;;2.40;;
11604;SDS011;5858;43.076;25.626;2022-07-22T11:24:20;2.95;;;2.60;;
11604;SDS011;5858;43.076;25.626;2022-07-22T11:26:48;5.43;;;2.42;;
11604;SDS011;5858;43.076;25.626;2022-07-22T11:29:17;4.63;;;2.17;;
11604;SDS011;5858;43.076;25.626;2022-07-22T11:31:51;5.30;;;3.00;;
11604;SDS011;5858;43.076;25.626;2022-07-22T11:34:27;3.17;;;2.65;;
11604;SDS011;5858;43.076;25.626;2022-07-22T11:36:55;6.22;;;2.85;;
11604;SDS011;5858;43.076;25.626;2022-07-22T11:39:24;2.78;;;2.42;;
11604;SDS011;5858;43.076;25.626;2022-07-22T11:41:52;3.05;;;2.50;;
11604;SDS011;5858;43.076;25.626;2022-07-22T11:44:22;4.32;;;3.00;;
11604;SDS011;5858;43.076;25.626;2022-07-22T11:46:51;3.67;;;2.50;;
11604;SDS011;5858;43.076;25.626;2022-07-22T11:49:26;2.35;;;2.15;;
11604;SDS011;5858;43.076;25.626;2022-07-22T11:51:54;6.20;;;2.80;;
11604;SDS011;5858;43.076;25.626;2022-07-22T11:54:21;3.38;;;2.33;;
11604;SDS011;5858;43.076;25.626;2022-07-22T11:56:49;3.70;;;2.20;;
11604;SDS011;5858;43.076;25.626;2022-07-22T11:59:16;6.07;;;2.58;;
11604;SDS011;5858;43.076;25.626;2022-07-22T12:01:48;5.43;;;2.40;;
11604;SDS011;5858;43.076;25.626;2022-07-22T12:04:18;3.47;;;2.72;;
11604;SDS011;5858;43.076;25.626;2022-07-22T12:06:47;3.40;;;2.25;;
11604;SDS011;5858;43.076;25.626;2022-07-22T12:09:15;2.88;;;2.55;;
11604;SDS011;5858;43.076;25.626;2022-07-22T12:11:47;2.65;;;2.25;;
11604;SDS011;5858;43.076;25.626;2022-07-22T12:14:17;2.55;;;2.00;;
11604;SDS011;5858;43.076;25.626;2022-07-22T12:16:52;4.30;;;2.97;;
11604;SDS011;5858;43.076;25.626;2022-07-22T12:19:23;6.82;;;2.65;;
11604;SDS011;5858;43.076;25.626;2022-07-22T12:21:54;2.63;;;2.30;;
11604;SDS011;5858;43.076;25.626;2022-07-22T12:24:30;3.40;;;2.70;;
11604;SDS011;5858;43.076;25.626;2022-07-22T12:26:59;5.28;;;2.70;;
11604;SDS011;5858;43.076;25.626;2022-07-22T12:29:28;6.00;;;2.85;;
11604;SDS011;5858;43.076;25.626;2022-07-22T12:31:57;3.80;;;2.50;;
11604;SDS011;5858;43.076;25.626;2022-07-22T12:37:21;3.85;;;2.25;;
11604;SDS011;5858;43.076;25.626;2022-07-22T12:39:53;3.65;;;2.40;;
11604;SDS011;5858;43.076;25.626;2022-07-22T12:42:22;3.15;;;2.28;;
11604;SDS011;5858;43.076;25.626;2022-07-22T12:44:50;6.47;;;2.70;;
11604;SDS011;5858;43.076;25.626;2022-07-22T12:50:25;2.50;;;2.08;;
11604;SDS011;5858;43.076;25.626;2022-07-22T12:52:54;2.33;;;2.13;;
11604;SDS011;5858;43.076;25.626;2022-07-22T12:55:22;2.90;;;2.10;;
11604;SDS011;5858;43.076;25.626;2022-07-22T12:57:50;3.70;;;1.92;;
11604;SDS011;5858;43.076;25.626;2022-07-22T13:00:18;3.90;;;1.98;;
11604;SDS011;5858;43.076;25.626;2022-07-22T13:02:47;4.00;;;1.90;;
11604;SDS011;5858;43.076;25.626;2022-07-22T13:05:15;4.05;;;2.03;;
11604;SDS011;5858;43.076;25.626;2022-07-22T13:07:44;3.50;;;2.20;;
11604;SDS011;5858;43.076;25.626;2022-07-22T13:10:12;4.90;;;2.20;;
11604;SDS011;5858;43.076;25.626;2022-07-22T13:12:41;3.65;;;1.98;;
11604;SDS011;5858;43.076;25.626;2022-07-22T13:15:09;2.45;;;1.98;;
11604;SDS011;5858;43.076;25.626;2022-07-22T13:17:36;4.07;;;2.17;;
11604;SDS011;5858;43.076;25.626;2022-07-22T13:20:04;3.60;;;1.95;;
11604;SDS011;5858;43.076;25.626;2022-07-22T13:22:32;2.70;;;2.03;;
11604;SDS011;5858;43.076;25.626;2022-07-22T13:25:01;4.78;;;2.20;;
11604;SDS011;5858;43.076;25.626;2022-07-22T13:27:29;4.55;;;2.15;;
11604;SDS011;5858;43.076;25.626;2022-07-22T13:29:56;12.60;;;2.20;;
11604;SDS011;5858;43.076;25.626;2022-07-22T13:32:23;5.90;;;2.50;;
11604;SDS011;5858;43.076;25.626;2022-07-22T13:34:51;2.65;;;1.88;;
11604;SDS011;5858;43.076;25.626;2022-07-22T13:37:19;5.75;;;2.20;;
11604;SDS011;5858;43.076;25.626;2022-07-22T13:39:46;6.20;;;2.08;;
11604;SDS011;5858;43.076;25.626;2022-07-22T13:42:15;3.13;;;2.10;;
11604;SDS011;5858;43.076;25.626;2022-07-22T13:44:48;2.75;;;1.70;;
11604;SDS011;5858;43.076;25.626;2022-07-22T13:47:19;5.05;;;1.65;;
11604;SDS011;5858;43.076;25.626;2022-07-22T13:49:48;4.03;;;1.67;;
11604;SDS011;5858;43.076;25.626;2022-07-22T13:52:15;3.25;;;2.00;;
11604;SDS011;5858;43.076;25.626;2022-07-22T13:54:44;1.80;;;1.60;;
11604;SDS011;5858;43.076;25.626;2022-07-22T13:57:11;3.70;;;1.75;;
11604;SDS011;5858;43.076;25.626;2022-07-22T13:59:41;3.25;;;1.55;;
11604;SDS011;5858;43.076;25.626;2022-07-22T14:02:09;3.38;;;1.95;;
11604;SDS011;5858;43.076;25.626;2022-07-22T14:04:36;4.55;;;2.08;;
11604;SDS011;5858;43.076;25.626;2022-07-22T14:07:03;2.90;;;2.08;;
11604;SDS011;5858;43.076;25.626;2022-07-22T14:09:30;6.82;;;1.70;;
11604;SDS011;5858;43.076;25.626;2022-07-22T14:11:57;2.83;;;2.30;;
11604;SDS011;5858;43.076;25.626;2022-07-22T14:14:25;6.55;;;1.90;;
11604;SDS011;5858;43.076;25.626;2022-07-22T14:16:53;2.67;;;1.92;;
11604;SDS011;5858;43.076;25.626;2022-07-22T14:19:20;5.18;;;1.83;;
11604;SDS011;5858;43.076;25.626;2022-07-22T14:21:47;4.63;;;2.13;;
11604;SDS011;5858;43.076;25.626;2022-07-22T14:24:15;5.95;;;1.73;;
11604;SDS011;5858;43.076;25.626;2022-07-22T14:26:42;6.43;;;1.83;;
11604;SDS011;5858;43.076;25.626;2022-07-22T14:29:11;2.88;;;1.85;;
11604;SDS011;5858;43.076;25.626;2022-07-22T14:31:38;2.60;;;1.42;;
11604;SDS011;5858;43.076;25.626;2022-07-22T14:34:07;2.25;;;1.75;;
11604;SDS011;5858;43.076;25.626;2022-07-22T14:36:34;2.13;;;1.80;;
11604;SDS011;5858;43.076;25.626;2022-07-22T14:39:01;5.43;;;1.67;;
11604;SDS011;5858;43.076;25.626;2022-07-22T14:41:28;3.38;;;1.85;;
11604;SDS011;5858;43.076;25.626;2022-07-22T14:43:56;3.45;;;1.60;;
11604;SDS011;5858;43.076;25.626;2022-07-22T14:46:23;4.03;;;1.70;;
11604;SDS011;5858;43.076;25.626;2022-07-22T14:48:50;3.55;;;1.80;;
11604;SDS011;5858;43.076;25.626;2022-07-22T14:51:20;4.57;;;1.85;;
11604;SDS011;5858;43.076;25.626;2022-07-22T14:53:48;2.53;;;1.90;;
11604;SDS011;5858;43.076;25.626;2022-07-22T14:56:16;5.10;;;2.28;;
11604;SDS011;5858;43.076;25.626;2022-07-22T14:58:44;7.03;;;1.90;;
11604;SDS011;5858;43.076;25.626;2022-07-22T15:01:11;4.00;;;1.80;;
11604;SDS011;5858;43.076;25.626;2022-07-22T15:03:39;5.97;;;2.60;;
11604;SDS011;5858;43.076;25.626;2022-07-22T15:06:06;7.32;;;2.30;;